Time;durP1;ratioP1;P1;durP2;ratioP2;P2;SDS_P1;SDS_P2;PMS_P1;PMS_P2;Temp;Humidity;BMP_temperature;BMP_pressure;BME280_temperature;BME280_humidity;BME280_pressure;Samples;Min_cycle;Max_cycle;Signal;HPM_P1;HPM_P2
2023/07/24 00:02:14;;;;;;;6.17;5.20;;;;;;;;;;5041498;28;20486;-80
2023/07/24 00:04:40;;;;;;;7.57;6.70;;;;;;;;;;5043327;28;20455;-80
2023/07/24 00:07:07;;;;;;;6.83;6.13;;;;;;;;;;5041199;28;21047;-80
2023/07/24 00:09:33;;;;;;;8.97;7.23;;;;;;;;;;5042802;28;20996;-80
2023/07/24 00:12:01;;;;;;;6.80;6.07;;;;;;;;;;5041381;28;20488;-80
2023/07/24 00:14:27;;;;;;;8.03;6.23;;;;;;;;;;5042032;28;20464;-80
2023/07/24 00:16:53;;;;;;;7.07;5.87;;;;;;;;;;5041609;28;20487;-80
2023/07/24 00:19:20;;;;;;;7.60;5.40;;;;;;;;;;5043797;28;20850;-80
2023/07/24 00:21:46;;;;;;;10.60;7.07;;;;;;;;;;5040517;28;20483;-81
2023/07/24 00:24:13;;;;;;;7.27;6.00;;;;;;;;;;5042104;28;20467;-80
2023/07/24 00:26:39;;;;;;;7.00;5.20;;;;;;;;;;5041035;28;20475;-80
2023/07/24 00:29:07;;;;;;;6.50;5.83;;;;;;;;;;5041601;28;20571;-80
2023/07/24 00:31:33;;;;;;;7.53;6.57;;;;;;;;;;5039893;28;20484;-81
2023/07/24 00:34:00;;;;;;;10.10;5.90;;;;;;;;;;5043018;28;20482;-80
2023/07/24 00:36:26;;;;;;;6.77;6.00;;;;;;;;;;5040956;28;20503;-80
2023/07/24 00:38:53;;;;;;;7.67;5.93;;;;;;;;;;5041215;28;20483;-81
2023/07/24 00:41:19;;;;;;;9.10;5.40;;;;;;;;;;5040978;28;20477;-80
2023/07/24 00:43:46;;;;;;;8.20;5.50;;;;;;;;;;5042096;28;20464;-80
2023/07/24 00:46:14;;;;;;;7.07;5.30;;;;;;;;;;5039908;28;20471;-80
2023/07/24 00:48:41;;;;;;;7.47;5.60;;;;;;;;;;5040807;28;20860;-80
2023/07/24 00:51:07;;;;;;;11.43;6.17;;;;;;;;;;5041398;28;20480;-80
2023/07/24 00:53:33;;;;;;;7.00;6.33;;;;;;;;;;5040919;28;20475;-80
2023/07/24 00:56:00;;;;;;;8.13;6.77;;;;;;;;;;5039036;28;20476;-80
2023/07/24 00:58:27;;;;;;;6.53;5.83;;;;;;;;;;5040487;28;20487;-80
2023/07/24 01:00:53;;;;;;;5.63;5.10;;;;;;;;;;5041259;28;20481;-80
2023/07/24 01:03:21;;;;;;;8.23;6.20;;;;;;;;;;5040759;28;20460;-80
2023/07/24 01:05:47;;;;;;;8.70;6.13;;;;;;;;;;5039498;28;20507;-84
2023/07/24 01:08:14;;;;;;;6.27;5.67;;;;;;;;;;5041980;28;21041;-83
2023/07/24 01:10:40;;;;;;;8.53;5.40;;;;;;;;;;5040666;28;20464;-83
2023/07/24 01:13:10;;;;;;;12.40;5.90;;;;;;;;;;5041453;28;20460;-83
2023/07/24 01:15:38;;;;;;;7.57;6.03;;;;;;;;;;5039808;28;20470;-83
2023/07/24 01:18:07;;;;;;;8.27;5.50;;;;;;;;;;5041018;28;20486;-80
2023/07/24 01:20:36;;;;;;;7.67;6.40;;;;;;;;;;5041860;28;20460;-81
2023/07/24 01:23:08;;;;;;;9.80;6.50;;;;;;;;;;5041892;28;20452;-80
2023/07/24 01:25:36;;;;;;;6.77;5.77;;;;;;;;;;5040165;28;20491;-80
2023/07/24 01:28:07;;;;;;;7.73;6.10;;;;;;;;;;5039541;28;20490;-80
2023/07/24 01:30:33;;;;;;;7.23;6.53;;;;;;;;;;5040305;28;20475;-80
2023/07/24 01:33:00;;;;;;;8.03;7.23;;;;;;;;;;5040634;28;20525;-82
2023/07/24 01:35:27;;;;;;;7.90;6.27;;;;;;;;;;5040870;28;20468;-81
2023/07/24 01:37:55;;;;;;;8.00;6.27;;;;;;;;;;5040916;28;20483;-80
2023/07/24 01:40:22;;;;;;;6.63;6.00;;;;;;;;;;5039562;28;20487;-80
2023/07/24 01:42:49;;;;;;;9.93;7.10;;;;;;;;;;5040285;28;20501;-81
2023/07/24 01:45:17;;;;;;;8.03;6.90;;;;;;;;;;5038467;28;20452;-82
2023/07/24 01:47:44;;;;;;;10.00;6.87;;;;;;;;;;5039689;28;20997;-81
2023/07/24 01:50:10;;;;;;;11.53;6.60;;;;;;;;;;5038962;28;20550;-80
2023/07/24 01:52:37;;;;;;;8.40;7.60;;;;;;;;;;5040624;28;20484;-80
2023/07/24 01:55:04;;;;;;;8.50;7.17;;;;;;;;;;5042714;28;20459;-80
2023/07/24 01:57:30;;;;;;;12.70;7.37;;;;;;;;;;5043133;28;20463;-81
2023/07/24 01:59:56;;;;;;;9.03;7.10;;;;;;;;;;5044449;28;20852;-80
2023/07/24 02:02:25;;;;;;;13.87;9.50;;;;;;;;;;5044076;28;21040;-81
2023/07/24 02:04:52;;;;;;;10.80;8.70;;;;;;;;;;5046264;28;20518;-80
2023/07/24 02:07:18;;;;;;;13.03;9.47;;;;;;;;;;5042300;28;20468;-81
2023/07/24 02:09:44;;;;;;;11.67;9.07;;;;;;;;;;5043946;28;20537;-80
2023/07/24 02:12:11;;;;;;;10.90;8.70;;;;;;;;;;5043839;28;20467;-80
2023/07/24 02:14:37;;;;;;;13.50;9.40;;;;;;;;;;5043986;28;20466;-80
2023/07/24 02:17:03;;;;;;;11.23;9.70;;;;;;;;;;5041702;28;20483;-81
2023/07/24 02:19:31;;;;;;;10.60;9.00;;;;;;;;;;5044515;28;20483;-81
2023/07/24 02:21:57;;;;;;;11.13;8.53;;;;;;;;;;5042866;28;20487;-81
2023/07/24 02:24:24;;;;;;;10.43;8.60;;;;;;;;;;5043342;28;20464;-80
2023/07/24 02:26:50;;;;;;;9.93;8.90;;;;;;;;;;5044616;28;20484;-81
2023/07/24 02:29:16;;;;;;;9.13;8.23;;;;;;;;;;5043193;28;20484;-82
2023/07/24 02:31:43;;;;;;;9.60;7.83;;;;;;;;;;5042597;28;20869;-80
2023/07/24 02:34:09;;;;;;;10.03;8.50;;;;;;;;;;5044584;28;20456;-80
2023/07/24 02:36:37;;;;;;;10.20;8.93;;;;;;;;;;5043217;28;20483;-81
2023/07/24 02:39:04;;;;;;;13.60;9.20;;;;;;;;;;5041936;28;20486;-81
2023/07/24 02:41:30;;;;;;;11.70;9.33;;;;;;;;;;5041182;28;21113;-81
2023/07/24 02:43:56;;;;;;;14.83;8.73;;;;;;;;;;5042884;28;20459;-81
2023/07/24 02:46:24;;;;;;;8.80;7.47;;;;;;;;;;5041654;28;21297;-81
2023/07/24 02:48:50;;;;;;;10.80;8.13;;;;;;;;;;5043672;28;20487;-81
2023/07/24 02:51:16;;;;;;;10.13;8.40;;;;;;;;;;5043165;28;20472;-82
2023/07/24 02:53:44;;;;;;;10.93;9.00;;;;;;;;;;5043699;28;20830;-80
2023/07/24 02:56:10;;;;;;;10.40;8.50;;;;;;;;;;5042926;28;21001;-81
2023/07/24 02:58:37;;;;;;;12.63;7.97;;;;;;;;;;5043613;28;20498;-81
2023/07/24 03:01:05;;;;;;;10.03;7.57;;;;;;;;;;5041917;28;20484;-81
2023/07/24 03:03:31;;;;;;;9.60;8.40;;;;;;;;;;5041002;28;20491;-80
2023/07/24 03:05:58;;;;;;;11.23;8.33;;;;;;;;;;5041634;28;20484;-80
2023/07/24 03:08:24;;;;;;;12.00;8.33;;;;;;;;;;5043391;28;20488;-81
2023/07/24 03:10:52;;;;;;;13.70;8.93;;;;;;;;;;5040941;28;20460;-80
2023/07/24 03:13:19;;;;;;;8.90;7.47;;;;;;;;;;5042657;28;20474;-80
2023/07/24 03:15:52;;;;;;;8.90;7.40;;;;;;;;;;5041418;28;20568;-81
2023/07/24 03:18:18;;;;;;;10.93;8.13;;;;;;;;;;5042826;28;20571;-81
2023/07/24 03:20:44;;;;;;;8.47;7.63;;;;;;;;;;5042498;28;20488;-81
2023/07/24 03:23:11;;;;;;;10.03;8.43;;;;;;;;;;5043972;28;20453;-82
2023/07/24 03:25:37;;;;;;;10.70;8.10;;;;;;;;;;5043086;28;20488;-81
2023/07/24 03:28:05;;;;;;;10.40;8.17;;;;;;;;;;5043045;28;20476;-81
2023/07/24 03:30:31;;;;;;;9.93;8.60;;;;;;;;;;5043701;28;20498;-81
2023/07/24 03:32:58;;;;;;;12.80;8.40;;;;;;;;;;5040343;28;20992;-81
2023/07/24 03:35:24;;;;;;;10.63;7.93;;;;;;;;;;5040772;28;20459;-81
2023/07/24 03:37:51;;;;;;;11.97;8.63;;;;;;;;;;5041156;28;20479;-81
2023/07/24 03:40:17;;;;;;;10.67;8.20;;;;;;;;;;5041935;28;20471;-82
2023/07/24 03:42:44;;;;;;;10.23;8.27;;;;;;;;;;5042011;28;21078;-81
2023/07/24 03:45:11;;;;;;;11.00;8.10;;;;;;;;;;5039155;28;20457;-81
2023/07/24 03:47:38;;;;;;;10.07;8.30;;;;;;;;;;5039858;28;20475;-80
2023/07/24 03:50:04;;;;;;;10.63;8.27;;;;;;;;;;5042157;28;20468;-81
2023/07/24 03:52:31;;;;;;;9.80;8.80;;;;;;;;;;5041279;28;20844;-81
2023/07/24 03:54:57;;;;;;;11.07;9.23;;;;;;;;;;5041189;28;20467;-81
2023/07/24 03:57:23;;;;;;;10.67;8.23;;;;;;;;;;5041992;28;20487;-81
2023/07/24 03:59:50;;;;;;;8.90;7.50;;;;;;;;;;5042563;28;20988;-80
2023/07/24 04:02:17;;;;;;;9.23;8.07;;;;;;;;;;5041477;28;20484;-81
2023/07/24 04:04:44;;;;;;;10.60;8.40;;;;;;;;;;5042249;28;20451;-81
2023/07/24 04:07:10;;;;;;;10.50;8.90;;;;;;;;;;5040870;28;20469;-80
2023/07/24 04:09:38;;;;;;;9.70;8.50;;;;;;;;;;5041898;28;20465;-80
2023/07/24 04:12:05;;;;;;;10.33;6.70;;;;;;;;;;5041284;28;20479;-80
2023/07/24 04:14:31;;;;;;;10.83;7.53;;;;;;;;;;5040598;28;20461;-81
2023/07/24 04:16:58;;;;;;;8.73;7.73;;;;;;;;;;5040255;28;20484;-81
2023/07/24 04:19:25;;;;;;;10.00;8.23;;;;;;;;;;5041984;28;20491;-80
2023/07/24 04:21:53;;;;;;;13.10;9.20;;;;;;;;;;5040801;28;20468;-81
2023/07/24 04:24:19;;;;;;;10.17;7.40;;;;;;;;;;5042183;28;20440;-81
2023/07/24 04:26:46;;;;;;;13.40;8.73;;;;;;;;;;5041345;28;20467;-81
2023/07/24 04:29:12;;;;;;;8.60;7.80;;;;;;;;;;5042125;28;20487;-80
2023/07/24 04:31:38;;;;;;;10.37;8.50;;;;;;;;;;5037816;28;20474;-81
2023/07/24 04:34:04;;;;;;;8.93;7.13;;;;;;;;;;5041678;28;20474;-81
2023/07/24 04:36:32;;;;;;;10.03;8.03;;;;;;;;;;5040868;28;20503;-80
2023/07/24 04:38:59;;;;;;;10.80;8.00;;;;;;;;;;5040585;28;20482;-80
2023/07/24 04:41:25;;;;;;;8.37;7.10;;;;;;;;;;5041191;28;20472;-81
2023/07/24 04:43:51;;;;;;;8.33;6.93;;;;;;;;;;5039116;28;20453;-81
2023/07/24 04:46:18;;;;;;;7.70;6.97;;;;;;;;;;5040141;28;20476;-81
2023/07/24 04:48:44;;;;;;;8.13;6.87;;;;;;;;;;5042239;28;20495;-80
2023/07/24 04:51:10;;;;;;;8.80;7.40;;;;;;;;;;5040046;28;21016;-80
2023/07/24 04:53:38;;;;;;;6.77;6.17;;;;;;;;;;5042971;28;21242;-81
2023/07/24 04:56:05;;;;;;;7.80;6.63;;;;;;;;;;5039254;28;20468;-81
2023/07/24 04:58:31;;;;;;;7.17;6.47;;;;;;;;;;5041041;28;20575;-81
2023/07/24 05:00:57;;;;;;;9.17;8.03;;;;;;;;;;5038553;28;20492;-81
2023/07/24 05:03:24;;;;;;;8.87;6.10;;;;;;;;;;5041302;28;20438;-81
2023/07/24 05:05:55;;;;;;;8.47;7.03;;;;;;;;;;5039960;28;20467;-81
2023/07/24 05:08:21;;;;;;;7.80;7.00;;;;;;;;;;5041376;28;20483;-80
2023/07/24 05:10:54;;;;;;;9.30;7.30;;;;;;;;;;5039474;28;20464;-81
2023/07/24 05:13:20;;;;;;;7.70;6.90;;;;;;;;;;5040625;28;20444;-80
2023/07/24 05:15:46;;;;;;;7.90;6.73;;;;;;;;;;5038585;28;20476;-80
2023/07/24 05:18:13;;;;;;;7.83;6.70;;;;;;;;;;5039867;28;20483;-80
2023/07/24 05:20:39;;;;;;;9.20;6.50;;;;;;;;;;5040452;28;20993;-80
2023/07/24 05:23:05;;;;;;;16.10;7.23;;;;;;;;;;5040820;28;20484;-80
2023/07/24 05:25:32;;;;;;;9.70;6.93;;;;;;;;;;5039886;28;20526;-81
2023/07/24 05:27:59;;;;;;;8.03;6.97;;;;;;;;;;5038902;28;20471;-80
2023/07/24 05:30:26;;;;;;;8.70;6.93;;;;;;;;;;5041474;28;20471;-81
2023/07/24 05:32:52;;;;;;;6.97;6.07;;;;;;;;;;5028359;28;20436;-80
2023/07/24 05:35:18;;;;;;;7.40;6.60;;;;;;;;;;5044017;28;20996;-81
2023/07/24 05:37:45;;;;;;;8.77;6.80;;;;;;;;;;5044340;28;20475;-80
2023/07/24 05:40:11;;;;;;;7.50;6.70;;;;;;;;;;5044230;28;20466;-81
2023/07/24 05:42:41;;;;;;;8.40;7.23;;;;;;;;;;5042671;28;21583;-80
2023/07/24 05:45:10;;;;;;;11.67;7.27;;;;;;;;;;5044773;28;20560;-80
2023/07/24 05:47:37;;;;;;;7.90;6.73;;;;;;;;;;5041429;28;20479;-81
2023/07/24 05:50:03;;;;;;;9.10;6.60;;;;;;;;;;5043310;28;20451;-81
2023/07/24 05:52:30;;;;;;;7.07;6.37;;;;;;;;;;5043283;28;20460;-81
2023/07/24 05:54:56;;;;;;;7.43;6.60;;;;;;;;;;5045238;28;20460;-81
2023/07/24 05:57:22;;;;;;;7.63;6.83;;;;;;;;;;5043176;28;21033;-81
2023/07/24 05:59:50;;;;;;;7.20;6.50;;;;;;;;;;5043694;28;20483;-81
2023/07/24 06:02:18;;;;;;;7.20;6.50;;;;;;;;;;5042006;28;20546;-80
2023/07/24 06:04:44;;;;;;;8.07;7.13;;;;;;;;;;5045483;28;20472;-81
2023/07/24 06:07:11;;;;;;;7.80;6.80;;;;;;;;;;5043807;28;21020;-81
2023/07/24 06:09:38;;;;;;;11.07;7.17;;;;;;;;;;5045256;28;20846;-81
2023/07/24 06:12:05;;;;;;;7.40;6.30;;;;;;;;;;5044519;28;20479;-80
2023/07/24 06:14:31;;;;;;;7.37;6.60;;;;;;;;;;5044511;28;20533;-80
2023/07/24 06:16:57;;;;;;;9.33;8.30;;;;;;;;;;5042972;28;20469;-80
2023/07/24 06:19:25;;;;;;;9.57;6.90;;;;;;;;;;5044403;28;21015;-80
2023/07/24 06:21:51;;;;;;;8.40;6.83;;;;;;;;;;5042175;28;20484;-80
2023/07/24 06:24:18;;;;;;;7.77;6.93;;;;;;;;;;5044140;28;20444;-80
2023/07/24 06:26:44;;;;;;;7.97;6.90;;;;;;;;;;5041925;28;20475;-81
2023/07/24 06:29:10;;;;;;;10.70;7.90;;;;;;;;;;5043097;28;20472;-80
2023/07/24 06:31:37;;;;;;;9.33;7.57;;;;;;;;;;5042937;28;20468;-80
2023/07/24 06:34:03;;;;;;;8.07;6.77;;;;;;;;;;5044186;28;20448;-80
2023/07/24 06:36:31;;;;;;;8.10;7.30;;;;;;;;;;5043721;28;20496;-80
2023/07/24 06:38:57;;;;;;;11.57;7.50;;;;;;;;;;5043054;28;20551;-80
2023/07/24 06:41:24;;;;;;;9.40;7.93;;;;;;;;;;5042745;28;20479;-81
2023/07/24 06:43:51;;;;;;;9.80;8.80;;;;;;;;;;5041014;28;20480;-81
2023/07/24 06:46:17;;;;;;;9.93;8.90;;;;;;;;;;5041827;28;20468;-82
2023/07/24 06:48:44;;;;;;;14.30;9.30;;;;;;;;;;5043418;28;20476;-81
2023/07/24 06:51:10;;;;;;;10.63;8.40;;;;;;;;;;5042606;28;21100;-81
2023/07/24 06:53:38;;;;;;;13.13;9.40;;;;;;;;;;5043496;28;20455;-81
2023/07/24 06:56:04;;;;;;;14.43;11.33;;;;;;;;;;5043516;28;20966;-81
2023/07/24 06:58:31;;;;;;;11.30;10.10;;;;;;;;;;5043360;28;20498;-81
2023/07/24 07:00:57;;;;;;;11.60;9.63;;;;;;;;;;5042150;28;20483;-81
2023/07/24 07:03:24;;;;;;;9.70;8.73;;;;;;;;;;5040861;28;21237;-80
2023/07/24 07:05:51;;;;;;;12.30;9.00;;;;;;;;;;5042161;28;21005;-81
2023/07/24 07:08:17;;;;;;;13.33;9.33;;;;;;;;;;5042674;28;20468;-80
2023/07/24 07:10:45;;;;;;;11.30;9.60;;;;;;;;;;5043011;28;20460;-81
2023/07/24 07:13:11;;;;;;;11.90;9.20;;;;;;;;;;5043507;28;20462;-81
2023/07/24 07:15:37;;;;;;;10.40;9.40;;;;;;;;;;5042329;28;20471;-80
2023/07/24 07:18:04;;;;;;;11.10;9.90;;;;;;;;;;5042338;28;20494;-80
2023/07/24 07:20:30;;;;;;;10.57;8.93;;;;;;;;;;5042833;28;20445;-80
2023/07/24 07:22:56;;;;;;;11.20;9.70;;;;;;;;;;5044196;28;20479;-81
2023/07/24 07:25:22;;;;;;;11.70;10.50;;;;;;;;;;5043495;28;20456;-81
2023/07/24 07:27:50;;;;;;;10.60;9.53;;;;;;;;;;5041834;28;20479;-81
2023/07/24 07:30:17;;;;;;;16.67;9.07;;;;;;;;;;5042761;28;20443;-80
2023/07/24 07:32:43;;;;;;;11.23;9.70;;;;;;;;;;5043593;28;21326;-80
2023/07/24 07:35:09;;;;;;;10.83;8.97;;;;;;;;;;5041969;28;20460;-80
2023/07/24 07:37:35;;;;;;;12.00;9.90;;;;;;;;;;5042578;28;20474;-80
2023/07/24 07:40:02;;;;;;;10.60;9.10;;;;;;;;;;5043430;28;20455;-80
2023/07/24 07:42:29;;;;;;;14.73;10.87;;;;;;;;;;5041457;28;20487;-80
2023/07/24 07:44:56;;;;;;;12.97;9.70;;;;;;;;;;5041799;28;20461;-81
2023/07/24 07:47:23;;;;;;;13.53;11.10;;;;;;;;;;5040549;28;20483;-80
2023/07/24 07:49:49;;;;;;;12.33;10.60;;;;;;;;;;5041648;28;20459;-81
2023/07/24 07:52:17;;;;;;;14.10;11.43;;;;;;;;;;5041950;28;20468;-81
2023/07/24 07:54:47;;;;;;;14.37;11.60;;;;;;;;;;5042869;28;20506;-80
2023/07/24 07:57:14;;;;;;;15.90;12.43;;;;;;;;;;5039913;28;20464;-80
2023/07/24 07:59:40;;;;;;;12.43;11.10;;;;;;;;;;5041903;28;20482;-81
2023/07/24 08:02:08;;;;;;;11.47;10.00;;;;;;;;;;5040885;28;20467;-80
2023/07/24 08:04:34;;;;;;;16.23;11.27;;;;;;;;;;5042375;28;20467;-81
2023/07/24 08:07:01;;;;;;;12.20;11.00;;;;;;;;;;5041600;28;20469;-81
2023/07/24 08:09:28;;;;;;;18.90;12.70;;;;;;;;;;5041014;28;20481;-81
2023/07/24 08:11:55;;;;;;;15.63;12.00;;;;;;;;;;5040514;28;20480;-80
2023/07/24 08:14:21;;;;;;;12.60;11.13;;;;;;;;;;5040565;28;20457;-81
2023/07/24 08:16:48;;;;;;;14.33;12.23;;;;;;;;;;5040848;28;20851;-81
2023/07/24 08:19:16;;;;;;;14.10;11.33;;;;;;;;;;5040493;28;21005;-81
2023/07/24 08:21:42;;;;;;;12.20;10.10;;;;;;;;;;5042019;28;20480;-81
2023/07/24 08:24:09;;;;;;;14.47;12.33;;;;;;;;;;5041758;28;20475;-81
2023/07/24 08:26:35;;;;;;;12.07;10.77;;;;;;;;;;5040800;28;20476;-81
2023/07/24 08:29:01;;;;;;;14.03;11.70;;;;;;;;;;5040077;28;20491;-80
2023/07/24 08:31:27;;;;;;;16.93;10.70;;;;;;;;;;5040382;28;20469;-81
2023/07/24 08:33:54;;;;;;;15.43;11.27;;;;;;;;;;5041298;28;20431;-80
2023/07/24 08:36:22;;;;;;;14.00;11.20;;;;;;;;;;5039949;28;21020;-81
2023/07/24 08:38:48;;;;;;;14.07;11.63;;;;;;;;;;5042058;28;20495;-81
2023/07/24 08:41:15;;;;;;;14.60;12.50;;;;;;;;;;5039989;28;20475;-81
2023/07/24 08:43:42;;;;;;;14.70;11.03;;;;;;;;;;5042255;28;20488;-81
2023/07/24 08:46:09;;;;;;;11.70;10.60;;;;;;;;;;5040865;28;20479;-80
2023/07/24 08:48:37;;;;;;;12.30;10.23;;;;;;;;;;5041350;28;20464;-81
2023/07/24 08:51:03;;;;;;;13.00;11.60;;;;;;;;;;5039639;28;20483;-81
2023/07/24 08:53:31;;;;;;;15.80;12.50;;;;;;;;;;5041671;28;20953;-81
2023/07/24 08:55:58;;;;;;;14.13;11.20;;;;;;;;;;5041452;28;20464;-81
2023/07/24 08:58:24;;;;;;;17.57;12.60;;;;;;;;;;5041409;28;21006;-81
2023/07/24 09:00:52;;;;;;;15.13;12.07;;;;;;;;;;5040347;28;20852;-81
2023/07/24 09:03:18;;;;;;;13.80;11.73;;;;;;;;;;5037149;28;20549;-81
2023/07/24 09:05:45;;;;;;;11.77;10.50;;;;;;;;;;5046978;28;20471;-81
2023/07/24 09:08:11;;;;;;;13.70;10.70;;;;;;;;;;5046337;28;20836;-81
2023/07/24 09:10:39;;;;;;;14.30;10.47;;;;;;;;;;5046733;28;20455;-80
2023/07/24 09:13:05;;;;;;;16.53;12.80;;;;;;;;;;5048057;28;20439;-81
2023/07/24 09:15:40;;;;;;;13.93;12.43;;;;;;;;;;5046545;28;20466;-81
2023/07/24 09:18:06;;;;;;;14.20;12.70;;;;;;;;;;5047536;28;20467;-80
2023/07/24 09:20:39;;;;;;;13.60;11.90;;;;;;;;;;5046736;28;20468;-80
2023/07/24 09:23:05;;;;;;;20.33;13.50;;;;;;;;;;5048150;28;20864;-81
2023/07/24 09:25:33;;;;;;;13.13;11.23;;;;;;;;;;5047754;28;20463;-81
2023/07/24 09:28:01;;;;;;;13.10;10.70;;;;;;;;;;5047810;28;20460;-81
2023/07/24 09:30:27;;;;;;;15.60;13.50;;;;;;;;;;5047488;28;20464;-81
2023/07/24 09:32:54;;;;;;;14.57;12.30;;;;;;;;;;5047524;28;20440;-81
2023/07/24 09:35:25;;;;;;;14.03;11.00;;;;;;;;;;5046183;28;20459;-81
2023/07/24 09:37:52;;;;;;;12.57;11.30;;;;;;;;;;5046167;28;20479;-81
2023/07/24 09:40:18;;;;;;;14.33;11.37;;;;;;;;;;5046752;28;20464;-82
2023/07/24 09:42:44;;;;;;;12.77;11.30;;;;;;;;;;5046492;28;20449;-81
2023/07/24 09:45:12;;;;;;;10.00;9.07;;;;;;;;;;5047670;28;20848;-81
2023/07/24 09:47:40;;;;;;;10.50;9.50;;;;;;;;;;5047746;28;20825;-81
2023/07/24 09:50:06;;;;;;;12.07;10.87;;;;;;;;;;5048476;28;20972;-81
2023/07/24 09:52:34;;;;;;;12.13;10.97;;;;;;;;;;5047220;28;20483;-81
2023/07/24 09:55:04;;;;;;;12.37;10.47;;;;;;;;;;5048355;28;20443;-81
2023/07/24 09:57:31;;;;;;;11.67;10.40;;;;;;;;;;5046074;28;20484;-81
2023/07/24 09:59:58;;;;;;;10.90;9.80;;;;;;;;;;5048107;28;21007;-80
2023/07/24 10:02:26;;;;;;;13.80;9.47;;;;;;;;;;5045366;28;20467;-81
2023/07/24 10:04:53;;;;;;;14.93;9.90;;;;;;;;;;5047012;28;20498;-81
2023/07/24 10:07:21;;;;;;;10.53;9.53;;;;;;;;;;5045996;28;21170;-81
2023/07/24 10:09:48;;;;;;;9.30;8.27;;;;;;;;;;5047734;28;20831;-80
2023/07/24 10:12:16;;;;;;;9.40;8.50;;;;;;;;;;5048463;28;21001;-81
2023/07/24 10:14:42;;;;;;;11.47;9.17;;;;;;;;;;5047854;28;20444;-81
2023/07/24 10:17:09;;;;;;;8.97;8.17;;;;;;;;;;5042547;28;20468;-81
2023/07/24 10:19:42;;;;;;;11.17;9.93;;;;;;;;;;5044141;28;20550;-81
2023/07/24 10:22:09;;;;;;;11.53;10.43;;;;;;;;;;5043337;28;20507;-81
2023/07/24 10:24:36;;;;;;;9.83;8.93;;;;;;;;;;5042001;28;20492;-81
2023/07/24 10:27:03;;;;;;;8.67;7.97;;;;;;;;;;5042748;28;20472;-81
2023/07/24 10:29:29;;;;;;;8.10;7.30;;;;;;;;;;5042915;28;20457;-81
2023/07/24 10:31:56;;;;;;;8.57;7.73;;;;;;;;;;5042192;28;20479;-81
2023/07/24 10:34:24;;;;;;;9.10;8.23;;;;;;;;;;5043208;28;20444;-81
2023/07/24 10:37:03;;;;;;;9.10;8.17;;;;;;;;;;5042462;28;20471;-81
2023/07/24 10:39:38;;;;;;;10.60;8.70;;;;;;;;;;5042585;28;20906;-81
2023/07/24 10:42:06;;;;;;;9.00;8.20;;;;;;;;;;5043106;28;20482;-81
2023/07/24 10:44:32;;;;;;;9.50;8.60;;;;;;;;;;5042596;28;20495;-81
2023/07/24 10:46:58;;;;;;;8.87;7.97;;;;;;;;;;5043330;28;20474;-81
2023/07/24 10:49:25;;;;;;;8.93;7.73;;;;;;;;;;5043986;28;20463;-80
2023/07/24 10:51:57;;;;;;;8.87;7.80;;;;;;;;;;5041964;28;20477;-82
2023/07/24 10:54:23;;;;;;;9.50;8.53;;;;;;;;;;5042473;28;20456;-81
2023/07/24 10:56:49;;;;;;;8.87;7.97;;;;;;;;;;5042541;28;20478;-81
2023/07/24 10:59:16;;;;;;;9.53;8.70;;;;;;;;;;5041922;28;20476;-81
2023/07/24 11:01:43;;;;;;;12.00;8.40;;;;;;;;;;5043697;28;20859;-81
2023/07/24 11:04:12;;;;;;;9.20;8.37;;;;;;;;;;5043764;28;20853;-81
2023/07/24 11:06:38;;;;;;;15.40;9.13;;;;;;;;;;5043949;28;20476;-81
2023/07/24 11:09:06;;;;;;;8.30;7.60;;;;;;;;;;5044830;28;20491;-81
2023/07/24 11:11:33;;;;;;;9.23;7.27;;;;;;;;;;5041967;28;21005;-81
2023/07/24 11:14:00;;;;;;;9.73;8.70;;;;;;;;;;5044693;28;20436;-81
2023/07/24 11:16:26;;;;;;;12.33;9.00;;;;;;;;;;5042221;28;20480;-80
2023/07/24 11:18:52;;;;;;;8.20;7.50;;;;;;;;;;5042438;28;20457;-80
2023/07/24 11:21:19;;;;;;;8.60;7.80;;;;;;;;;;5041930;28;20826;-80
2023/07/24 11:23:46;;;;;;;8.97;8.00;;;;;;;;;;5042791;28;20476;-80
2023/07/24 11:26:14;;;;;;;10.07;9.17;;;;;;;;;;5042138;28;20480;-80
2023/07/24 11:28:41;;;;;;;8.47;7.77;;;;;;;;;;5042445;28;20479;-80
2023/07/24 11:31:07;;;;;;;11.27;8.90;;;;;;;;;;5042676;28;20468;-81
2023/07/24 11:33:34;;;;;;;10.53;7.97;;;;;;;;;;5043461;28;20449;-81
2023/07/24 11:36:00;;;;;;;8.73;7.90;;;;;;;;;;5042117;28;20480;-81
2023/07/24 11:38:27;;;;;;;8.90;7.67;;;;;;;;;;5041643;28;21021;-80
2023/07/24 11:40:54;;;;;;;7.93;7.13;;;;;;;;;;5042764;28;20470;-80
2023/07/24 11:43:23;;;;;;;11.57;7.83;;;;;;;;;;5038447;28;20475;-81
2023/07/24 11:45:51;;;;;;;10.40;7.57;;;;;;;;;;5042233;28;20475;-80
2023/07/24 11:48:18;;;;;;;13.30;9.20;;;;;;;;;;5042133;28;20541;-81
2023/07/24 11:50:45;;;;;;;9.63;8.73;;;;;;;;;;5040600;28;20835;-81
2023/07/24 11:53:19;;;;;;;8.50;7.67;;;;;;;;;;5042427;28;20985;-80
2023/07/24 11:55:46;;;;;;;9.53;8.63;;;;;;;;;;5037385;28;21333;-80
2023/07/24 11:58:15;;;;;;;9.03;8.17;;;;;;;;;;5040952;28;20490;-81
2023/07/24 12:00:43;;;;;;;9.00;8.10;;;;;;;;;;5041274;28;20468;-80
2023/07/24 12:03:09;;;;;;;9.17;7.90;;;;;;;;;;5043394;28;20455;-81
2023/07/24 12:05:38;;;;;;;7.80;7.10;;;;;;;;;;5040697;28;20476;-80
2023/07/24 12:08:05;;;;;;;10.90;7.50;;;;;;;;;;5041613;28;20471;-81
2023/07/24 12:10:31;;;;;;;10.30;8.73;;;;;;;;;;5042043;28;20486;-81
2023/07/24 12:12:59;;;;;;;7.83;7.03;;;;;;;;;;5041011;28;20949;-81
2023/07/24 12:15:26;;;;;;;8.40;7.27;;;;;;;;;;5041538;28;20448;-81
2023/07/24 12:18:00;;;;;;;8.50;7.57;;;;;;;;;;5040933;28;20483;-81
2023/07/24 12:20:27;;;;;;;7.50;6.80;;;;;;;;;;5041381;28;20949;-81
2023/07/24 12:22:54;;;;;;;7.93;7.00;;;;;;;;;;5041369;28;20455;-80
2023/07/24 12:25:20;;;;;;;9.07;8.10;;;;;;;;;;5040541;28;20479;-81
2023/07/24 12:27:47;;;;;;;8.10;7.40;;;;;;;;;;5040596;28;20498;-81
2023/07/24 12:30:13;;;;;;;8.73;7.73;;;;;;;;;;5036765;28;21006;-81
2023/07/24 12:32:40;;;;;;;9.73;7.83;;;;;;;;;;5041191;28;20452;-81
2023/07/24 12:35:08;;;;;;;7.90;7.20;;;;;;;;;;5041215;28;20451;-80
2023/07/24 12:37:34;;;;;;;7.87;7.07;;;;;;;;;;5041810;28;20469;-81
2023/07/24 12:40:01;;;;;;;7.47;6.27;;;;;;;;;;5040549;28;20902;-81
2023/07/24 12:42:27;;;;;;;13.03;7.50;;;;;;;;;;5041053;28;20484;-81
2023/07/24 12:44:53;;;;;;;7.27;6.57;;;;;;;;;;5041842;28;20510;-81
2023/07/24 12:47:20;;;;;;;7.40;6.80;;;;;;;;;;5039264;28;20484;-81
2023/07/24 12:49:46;;;;;;;7.47;6.20;;;;;;;;;;5042130;28;20453;-82
2023/07/24 12:52:14;;;;;;;10.50;6.73;;;;;;;;;;5041075;28;20546;-81
2023/07/24 12:54:40;;;;;;;7.57;6.20;;;;;;;;;;5041515;28;20440;-81
2023/07/24 12:57:09;;;;;;;7.43;6.83;;;;;;;;;;5040625;28;20476;-81
2023/07/24 12:59:37;;;;;;;8.87;8.00;;;;;;;;;;5040334;28;20472;-80
2023/07/24 13:02:03;;;;;;;9.90;8.10;;;;;;;;;;5040729;28;20526;-81
2023/07/24 13:04:30;;;;;;;8.40;7.63;;;;;;;;;;5039507;28;20479;-80
2023/07/24 13:06:56;;;;;;;7.10;6.50;;;;;;;;;;5040705;28;20473;-81
2023/07/24 13:09:23;;;;;;;9.43;7.53;;;;;;;;;;5040751;28;20982;-81
2023/07/24 13:11:51;;;;;;;8.07;7.03;;;;;;;;;;5041623;28;20472;-81
2023/07/24 13:14:17;;;;;;;9.10;7.70;;;;;;;;;;5042133;28;20441;-81
2023/07/24 13:16:44;;;;;;;8.43;7.60;;;;;;;;;;5040682;28;20476;-81
2023/07/24 13:19:10;;;;;;;8.13;6.90;;;;;;;;;;5040599;28;20856;-81
2023/07/24 13:21:36;;;;;;;8.40;7.37;;;;;;;;;;5039172;28;20475;-81
2023/07/24 13:24:03;;;;;;;8.73;7.97;;;;;;;;;;5040600;28;20498;-80
2023/07/24 13:26:31;;;;;;;8.33;7.53;;;;;;;;;;5040638;28;20479;-81
2023/07/24 13:28:57;;;;;;;9.93;8.70;;;;;;;;;;5040515;28;20472;-81
2023/07/24 13:31:25;;;;;;;12.40;7.77;;;;;;;;;;5041037;28;20476;-82
2023/07/24 13:33:51;;;;;;;10.40;8.97;;;;;;;;;;5041071;28;21001;-81
2023/07/24 13:36:18;;;;;;;10.37;7.93;;;;;;;;;;5041062;28;20821;-80
2023/07/24 13:38:44;;;;;;;10.80;8.37;;;;;;;;;;5040789;28;20476;-81
2023/07/24 13:41:10;;;;;;;10.27;9.23;;;;;;;;;;5039156;28;21008;-81
2023/07/24 13:43:38;;;;;;;12.17;9.13;;;;;;;;;;5040524;28;20464;-81
2023/07/24 13:46:04;;;;;;;10.40;8.73;;;;;;;;;;5040665;28;20940;-80
2023/07/24 13:48:31;;;;;;;10.40;9.23;;;;;;;;;;5040376;28;20464;-82
2023/07/24 13:50:57;;;;;;;12.70;9.20;;;;;;;;;;5041855;28;20847;-81
2023/07/24 13:53:24;;;;;;;9.87;8.63;;;;;;;;;;5043384;28;20460;-81
2023/07/24 13:55:50;;;;;;;9.67;8.77;;;;;;;;;;5041498;28;20478;-81
2023/07/24 13:58:17;;;;;;;10.63;9.63;;;;;;;;;;5042688;28;20468;-81
2023/07/24 14:00:44;;;;;;;10.43;9.40;;;;;;;;;;5043990;28;20467;-80
2023/07/24 14:03:11;;;;;;;10.90;8.60;;;;;;;;;;5043908;28;20449;-81
2023/07/24 14:05:37;;;;;;;10.10;9.13;;;;;;;;;;5043780;28;20468;-81
2023/07/24 14:08:04;;;;;;;9.40;7.83;;;;;;;;;;5044645;28;20981;-81
2023/07/24 14:10:30;;;;;;;10.00;9.00;;;;;;;;;;5043157;28;20957;-81
2023/07/24 14:12:57;;;;;;;9.77;8.87;;;;;;;;;;5042971;28;20986;-81
2023/07/24 14:15:23;;;;;;;9.67;8.70;;;;;;;;;;5043430;28;20448;-81
2023/07/24 14:17:51;;;;;;;8.33;7.53;;;;;;;;;;5042623;28;20514;-81
2023/07/24 14:20:17;;;;;;;9.27;8.27;;;;;;;;;;5042123;28;20480;-81
2023/07/24 14:22:44;;;;;;;9.70;8.73;;;;;;;;;;5043609;28;20441;-81
2023/07/24 14:25:12;;;;;;;9.43;8.47;;;;;;;;;;5042107;28;20487;-81
2023/07/24 14:27:38;;;;;;;9.67;7.80;;;;;;;;;;5043299;28;20472;-81
2023/07/24 14:30:05;;;;;;;9.63;8.03;;;;;;;;;;5043289;28;20490;-80
2023/07/24 14:32:31;;;;;;;9.17;7.63;;;;;;;;;;5041852;28;21004;-81